Wilbur Observed Data For Previous 48 Hours

Caption
Day and Hour Reservoir Elevation (behind dam)* Tailwater Elevation (below dam)* Average Hourly Discharge*
8/19/2017 2 AM EDT 1,646.89 1,583.13 231
8/19/2017 3 AM EDT 1,646.56 1,583.11 229
8/19/2017 4 AM EDT 1,646.22 1,583.10 225
8/19/2017 5 AM EDT 1,647.41 1,583.15 229
8/19/2017 6 AM EDT 1,648.55 1,584.32 240
8/19/2017 7 AM EDT 1,647.89 1,585.72 1,728
8/19/2017 8 AM EDT 1,647.16 1,585.70 1,754
8/19/2017 9 AM EDT 1,646.40 1,585.68 1,745
8/19/2017 10 AM EDT 1,646.63 1,583.19 1,038
8/19/2017 11 AM EDT 1,647.91 1,583.18 234
8/19/2017 12 PM EDT 1,649.03 1,584.24 244
8/19/2017 1 PM EDT 1,648.37 1,585.73 1,733
8/19/2017 2 PM EDT 1,647.42 1,586.38 2,394
8/19/2017 3 PM EDT 1,647.86 1,586.41 2,407
8/19/2017 4 PM EDT 1,648.29 1,586.43 2,427
8/19/2017 5 PM EDT 1,648.68 1,586.43 2,440
8/19/2017 6 PM EDT 1,648.42 1,585.76 1,938
8/19/2017 7 PM EDT 1,649.46 1,584.15 288
8/19/2017 8 PM EDT 1,648.78 1,585.73 1,723
8/19/2017 9 PM EDT 1,648.08 1,585.72 1,758
8/19/2017 10 PM EDT 1,647.33 1,585.72 1,747
8/19/2017 11 PM EDT 1,646.57 1,585.70 1,741
8/20/2017 12 AM EDT 1,647.83 1,583.20 277
8/20/2017 1 AM EDT 1,649.02 1,583.25 244
8/20/2017 2 AM EDT 1,648.73 1,583.24 248
8/20/2017 3 AM EDT 1,648.43 1,583.22 245
8/20/2017 4 AM EDT 1,648.08 1,583.21 242
8/20/2017 5 AM EDT 1,647.74 1,583.20 240
8/20/2017 6 AM EDT 1,647.39 1,583.18 236
8/20/2017 7 AM EDT 1,648.50 1,583.22 240
8/20/2017 8 AM EDT 1,648.24 1,583.22 244
8/20/2017 9 AM EDT 1,647.93 1,583.20 240
8/20/2017 10 AM EDT 1,647.57 1,583.19 238
8/20/2017 11 AM EDT 1,647.24 1,583.18 235
8/20/2017 12 PM EDT 1,646.89 1,583.17 231
8/20/2017 1 PM EDT 1,648.03 1,583.22 235
8/20/2017 2 PM EDT 1,647.77 1,583.22 240
8/20/2017 3 PM EDT 1,647.45 1,583.20 236
8/20/2017 4 PM EDT 1,647.10 1,583.18 234
8/20/2017 5 PM EDT 1,646.78 1,583.17 230
8/20/2017 6 PM EDT 1,646.42 1,583.16 227
8/20/2017 7 PM EDT 1,647.57 1,583.22 231
8/20/2017 8 PM EDT 1,647.34 1,583.22 235
8/20/2017 9 PM EDT 1,647.01 1,583.21 233
8/20/2017 10 PM EDT 1,646.64 1,583.18 230
8/20/2017 11 PM EDT 1,646.29 1,583.16 225
8/21/2017 12 AM EDT 1,645.91 1,583.14 223
8/21/2017 1 AM EDT 1,647.09 1,583.20 226
8/21/2017 2 AM EDT 1,646.87 1,583.18 230
8/21/2017 3 AM EDT 1,646.54 1,583.16 229
8/21/2017 4 AM EDT 1,646.19 1,583.14 225
8/21/2017 5 AM EDT 1,645.84 1,583.13 222
8/21/2017 6 AM EDT 1,647.04 1,583.17 226
8/21/2017 7 AM EDT 1,648.19 1,584.26 237
8/21/2017 8 AM EDT 1,647.53 1,585.72 1,721
8/21/2017 9 AM EDT 1,646.79 1,585.70 1,743
8/21/2017 10 AM EDT 1,646.03 1,585.69 1,734
8/21/2017 11 AM EDT 1,647.31 1,583.18 273
8/21/2017 12 PM EDT 1,648.54 1,583.23 239
8/21/2017 1 PM EDT 1,649.24 1,585.69 586
8/21/2017 2 PM EDT 1,648.47 1,585.73 1,760
8/21/2017 3 PM EDT 1,647.71 1,585.72 1,752
8/21/2017 4 PM EDT 1,646.96 1,585.69 1,754
8/21/2017 5 PM EDT 1,646.20 1,585.69 1,745
8/21/2017 6 PM EDT 1,645.43 1,585.69 1,734
8/21/2017 7 PM EDT 1,646.76 1,583.16 262
8/21/2017 8 PM EDT 1,647.90 1,584.22 234
8/21/2017 9 PM EDT 1,647.24 1,585.70 1,714

Elevations are in feet above sea level. Discharges are in cubic feet per second and are reported at the end of the hour.